Portada
METAR-TAF:

METAR-TAF

Aeroports :

Àqaba, Jordània

latitud: 29-38N, longitud: 035-01E, altitud: 53 m

Observació

L'informe es va fer fa 25 minuts, a les 22:00 UTC
Vent 8 kt del Nord
Temperatura 24°C
Humitat 29%
Pressió 1012 hPa
Visibilitat 10 km o més
sense núvols per sota de 1500 mi sense presència de cumulonimbus.

METAR: OJAQ 152200Z 36008KT CAVOK 24/05 Q1012 NOSIG

Hora: 01:25 (22:25 UTC)

Pronòstic

L'informe es va fer fa 5 hores i 40 minuts, a les 16:45 UTC
Pronòstic vàlid del 15 a les 18 UTC al 16 a les 24 UTC
Vent 8 kt del Nord
Visibilitat 10 km o més
sense núvols per sota de 1500 mi sense presència de cumulonimbus.

TAF: OJAQ 151645Z 1518/1624 36008KT CAVOK

Observacions i pronòstics meteorològics de més de 4000 aeroports (METAR i TAF).

Les estacions disponibles són els punts grocs i vermells al mapa.

Posi el ratolí al punt desitjat per veure el nom de l'estació.

Feu clic per veure les observacions i els pronòstics meteorològics.

Per canviar el mapa: feu clic els botons verds amb una creu de color negre per apropar; al botó verd amb un guió per allunyar la imatge; o en les fletxes verdes per a mapes adjacents.


METAR-TAF: